Time;durP1;ratioP1;P1;durP2;ratioP2;P2;SDS_P1;SDS_P2;PMS_P1;PMS_P2;Temp;Humidity;BMP_temperature;BMP_pressure;BME280_temperature;BME280_humidity;BME280_pressure;Samples;Min_cycle;Max_cycle;Signal;HPM_P1;HPM_P2
2020/12/26 00:01:25;;;;;;;35.70;19.02;;;4.30;99.90;;;;;;5045866;28;20037;-74
2020/12/26 00:03:50;;;;;;;33.28;18.40;;;4.30;99.90;;;;;;5042736;28;20036;-74
2020/12/26 00:06:20;;;;;;;35.47;21.48;;;4.30;99.90;;;;;;5045013;28;20029;-75
2020/12/26 00:08:46;;;;;;;36.05;20.33;;;4.30;99.90;;;;;;5037682;28;20022;-75
2020/12/26 00:11:14;;;;;;;30.10;18.67;;;4.30;99.90;;;;;;5042020;28;20029;-76
2020/12/26 00:13:40;;;;;;;28.13;18.48;;;4.30;99.90;;;;;;5039730;28;20044;-74
2020/12/26 00:16:07;;;;;;;32.85;19.15;;;4.20;99.90;;;;;;5041732;28;20033;-73
2020/12/26 00:18:34;;;;;;;29.65;19.45;;;4.30;99.90;;;;;;5042706;28;20434;-74
2020/12/26 00:21:00;;;;;;;33.92;20.25;;;4.20;99.90;;;;;;5042421;28;20075;-75
2020/12/26 00:23:26;;;;;;;30.05;20.52;;;4.20;99.90;;;;;;5047093;28;20036;-75
2020/12/26 00:25:52;;;;;;;31.23;19.10;;;4.20;99.90;;;;;;5042275;28;20040;-72
2020/12/26 00:28:18;;;;;;;35.10;18.55;;;4.30;99.90;;;;;;5042374;28;20040;-73
2020/12/26 00:30:43;;;;;;;33.13;19.13;;;4.20;99.90;;;;;;5040461;28;20397;-74
2020/12/26 00:33:09;;;;;;;32.40;18.75;;;4.20;99.90;;;;;;5049642;28;20100;-74
2020/12/26 00:35:34;;;;;;;27.05;17.85;;;4.30;99.90;;;;;;5047369;28;20040;-75
2020/12/26 00:38:00;;;;;;;25.65;18.08;;;4.20;99.90;;;;;;5047713;28;20092;-75
2020/12/26 00:40:26;;;;;;;30.65;18.33;;;4.40;99.90;;;;;;5046422;28;20056;-74
2020/12/26 00:42:52;;;;;;;31.25;19.15;;;4.40;99.90;;;;;;5047444;28;20433;-74
2020/12/26 00:45:17;;;;;;;31.30;18.25;;;4.40;99.90;;;;;;5056518;28;20036;-75
2020/12/26 00:47:44;;;;;;;35.22;20.75;;;4.40;99.90;;;;;;5053431;28;20025;-75
2020/12/26 00:50:10;;;;;;;27.10;18.23;;;4.40;99.90;;;;;;5046794;28;20377;-75
2020/12/26 00:52:36;;;;;;;32.08;20.25;;;4.50;99.90;;;;;;5049330;28;20036;-75
2020/12/26 00:55:03;;;;;;;28.20;17.92;;;4.50;99.90;;;;;;5041009;28;20025;-72
2020/12/26 00:57:29;;;;;;;29.58;19.63;;;4.40;99.90;;;;;;5044221;28;20117;-75
2020/12/26 00:59:55;;;;;;;27.55;19.25;;;4.40;99.90;;;;;;5042678;28;20031;-74
2020/12/26 01:02:21;;;;;;;31.75;18.77;;;4.40;99.90;;;;;;5045781;28;20029;-72
2020/12/26 01:04:46;;;;;;;31.20;18.50;;;4.40;99.90;;;;;;5048764;28;20041;-73
2020/12/26 01:07:12;;;;;;;35.33;18.75;;;4.40;99.90;;;;;;5046778;28;20362;-72
2020/12/26 01:09:38;;;;;;;29.10;19.58;;;4.60;99.90;;;;;;5047436;28;20476;-71
2020/12/26 01:12:04;;;;;;;33.17;18.23;;;4.60;99.90;;;;;;5054871;28;20021;-71
2020/12/26 01:14:31;;;;;;;27.52;18.42;;;4.60;99.90;;;;;;5043661;28;20037;-71
2020/12/26 01:16:56;;;;;;;32.50;19.23;;;4.70;99.90;;;;;;5051729;28;20021;-72
2020/12/26 01:19:22;;;;;;;29.20;20.02;;;4.70;99.90;;;;;;5052881;28;20160;-73
2020/12/26 01:21:52;;;;;;;31.63;18.77;;;4.60;99.90;;;;;;5049131;28;20025;-72
2020/12/26 01:24:18;;;;;;;31.77;19.30;;;4.50;99.90;;;;;;5051095;28;20477;-72
2020/12/26 01:26:51;;;;;;;28.58;19.05;;;4.60;99.90;;;;;;5050653;28;20056;-72
2020/12/26 01:29:18;;;;;;;35.38;19.27;;;4.50;99.90;;;;;;5048873;28;20020;-72
2020/12/26 01:31:48;;;;;;;29.60;19.23;;;4.50;99.90;;;;;;5050243;28;20028;-72
2020/12/26 01:34:14;;;;;;;30.70;20.42;;;4.60;99.90;;;;;;5051191;28;20684;-72
2020/12/26 01:36:40;;;;;;;27.27;19.35;;;4.60;99.90;;;;;;5050003;28;20021;-72
2020/12/26 01:39:05;;;;;;;30.55;21.67;;;4.60;99.90;;;;;;5051182;28;20021;-71
2020/12/26 01:41:31;;;;;;;35.72;22.00;;;4.60;99.90;;;;;;5047598;28;20470;-72
2020/12/26 01:43:59;;;;;;;32.83;18.92;;;4.60;99.90;;;;;;5042509;28;20126;-72
2020/12/26 01:46:27;;;;;;;34.05;22.80;;;4.50;99.90;;;;;;5041851;28;20044;-72
2020/12/26 01:48:54;;;;;;;36.78;22.17;;;4.40;99.90;;;;;;5047918;28;20025;-74
2020/12/26 01:51:21;;;;;;;30.45;20.80;;;4.50;99.90;;;;;;5051424;28;20027;-72
2020/12/26 01:53:48;;;;;;;36.85;22.42;;;4.50;99.90;;;;;;5044063;28;20033;-72
2020/12/26 01:56:14;;;;;;;33.67;23.00;;;4.50;99.90;;;;;;5041743;28;20029;-72
2020/12/26 01:58:44;;;;;;;37.35;22.23;;;4.50;99.90;;;;;;5048603;28;20140;-72
2020/12/26 02:01:13;;;;;;;32.55;22.00;;;4.50;99.90;;;;;;5049627;28;20021;-73
2020/12/26 02:03:42;;;;;;;33.92;22.75;;;4.50;99.90;;;;;;5049772;28;20033;-74
2020/12/26 02:06:09;;;;;;;34.60;22.27;;;4.60;99.90;;;;;;5050913;28;20040;-72
2020/12/26 02:08:36;;;;;;;34.97;23.02;;;4.60;99.90;;;;;;5049550;28;20036;-71
2020/12/26 02:11:05;;;;;;;35.65;20.83;;;4.70;99.90;;;;;;5047067;28;20032;-72
2020/12/26 02:13:34;;;;;;;33.13;21.35;;;4.70;99.90;;;;;;5048022;28;20030;-72
2020/12/26 02:16:06;;;;;;;32.75;21.20;;;4.70;99.90;;;;;;5049192;28;20032;-72
2020/12/26 02:18:35;;;;;;;33.08;22.40;;;4.80;99.90;;;;;;5050895;28;20029;-72
2020/12/26 02:21:04;;;;;;;34.28;20.95;;;4.70;99.90;;;;;;5049618;28;20080;-72
2020/12/26 02:23:30;;;;;;;41.63;22.58;;;4.70;99.90;;;;;;5051295;28;20021;-71
2020/12/26 02:25:57;;;;;;;31.45;21.42;;;4.70;99.90;;;;;;5051844;28;20037;-72
2020/12/26 02:28:23;;;;;;;34.85;22.38;;;4.60;99.90;;;;;;5047164;28;20154;-72
2020/12/26 02:30:50;;;;;;;37.03;21.67;;;4.70;99.90;;;;;;5047270;28;20565;-71
2020/12/26 02:33:15;;;;;;;33.50;22.50;;;4.80;99.90;;;;;;5047393;28;20099;-73
2020/12/26 02:35:48;;;;;;;37.00;23.35;;;4.80;99.90;;;;;;5047279;28;20060;-73
2020/12/26 02:38:15;;;;;;;35.60;22.48;;;4.70;99.90;;;;;;5049854;28;20054;-72
2020/12/26 02:40:41;;;;;;;35.65;22.17;;;4.70;99.90;;;;;;5051449;28;20121;-72
2020/12/26 02:43:26;;;;;;;29.90;20.35;;;4.70;99.90;;;;;;5051878;28;20029;-73
2020/12/26 02:45:53;;;;;;;36.47;21.25;;;4.80;99.90;;;;;;5047895;28;20037;-72
2020/12/26 02:48:19;;;;;;;35.25;22.75;;;4.90;99.90;;;;;;5048199;28;20483;-72
2020/12/26 02:50:45;;;;;;;32.88;21.77;;;4.80;99.90;;;;;;5053578;28;20101;-72
2020/12/26 02:53:10;;;;;;;35.75;23.77;;;4.80;99.90;;;;;;5047166;28;20056;-71
2020/12/26 02:55:37;;;;;;;35.70;23.45;;;4.80;99.90;;;;;;5045993;28;20040;-72
2020/12/26 02:58:03;;;;;;;37.85;23.85;;;4.90;99.90;;;;;;5051701;28;20020;-71
2020/12/26 03:00:30;;;;;;;42.03;27.00;;;4.90;99.90;;;;;;5041725;28;20032;-72
2020/12/26 03:02:55;;;;;;;37.85;24.67;;;4.90;99.90;;;;;;5041281;28;20473;-71
2020/12/26 03:05:21;;;;;;;42.30;27.80;;;4.90;99.90;;;;;;5040498;28;20032;-71
2020/12/26 03:07:47;;;;;;;50.00;27.30;;;4.90;99.90;;;;;;5044359;28;20164;-71
2020/12/26 03:10:13;;;;;;;38.47;25.10;;;4.90;99.90;;;;;;5048368;28;20017;-72
2020/12/26 03:12:39;;;;;;;35.30;24.88;;;5.00;99.90;;;;;;5051126;28;20025;-71
2020/12/26 03:15:05;;;;;;;50.15;25.02;;;5.00;99.90;;;;;;5045773;28;20035;-72
2020/12/26 03:17:31;;;;;;;43.42;25.50;;;5.10;99.90;;;;;;5038395;28;20482;-72
2020/12/26 03:20:01;;;;;;;37.50;25.25;;;5.10;99.90;;;;;;5046486;28;20032;-74
2020/12/26 03:22:27;;;;;;;34.53;23.80;;;5.20;99.90;;;;;;5050061;28;20043;-73
2020/12/26 03:24:54;;;;;;;37.05;24.90;;;5.20;99.90;;;;;;5047077;28;20084;-72
2020/12/26 03:27:19;;;;;;;42.47;26.98;;;5.20;99.90;;;;;;5051887;28;20020;-72
2020/12/26 03:29:45;;;;;;;34.67;22.60;;;5.20;99.90;;;;;;5045302;28;20033;-72
2020/12/26 03:32:11;;;;;;;32.80;21.55;;;5.20;99.90;;;;;;5045378;28;20474;-72
2020/12/26 03:34:37;;;;;;;40.22;23.38;;;5.10;99.90;;;;;;5044891;28;20029;-72
2020/12/26 03:37:04;;;;;;;31.58;21.70;;;5.10;99.90;;;;;;5048260;28;20020;-75
2020/12/26 03:39:29;;;;;;;38.35;22.90;;;5.10;99.90;;;;;;5049080;28;20086;-75
2020/12/26 03:41:55;;;;;;;35.40;22.77;;;5.10;99.90;;;;;;5044452;28;20033;-73
2020/12/26 03:44:21;;;;;;;34.13;21.88;;;5.20;99.90;;;;;;5046496;28;20061;-74
2020/12/26 03:46:47;;;;;;;38.17;24.33;;;5.10;99.90;;;;;;5048232;28;20051;-74
2020/12/26 03:49:13;;;;;;;39.00;23.55;;;5.10;99.90;;;;;;5043453;28;20474;-74
2020/12/26 03:51:39;;;;;;;34.85;23.20;;;5.10;99.90;;;;;;5046813;28;20017;-74
2020/12/26 03:54:04;;;;;;;34.00;22.55;;;5.10;99.90;;;;;;5049977;28;20078;-75
2020/12/26 03:56:30;;;;;;;32.08;21.52;;;5.10;99.90;;;;;;5047563;28;20021;-75
2020/12/26 03:58:56;;;;;;;34.00;22.75;;;5.10;99.90;;;;;;5046096;28;20020;-74
2020/12/26 04:01:21;;;;;;;33.50;21.88;;;5.10;99.90;;;;;;5048871;28;20052;-75
2020/12/26 04:03:47;;;;;;;41.88;23.67;;;5.00;99.90;;;;;;5047914;28;20560;-74
2020/12/26 04:06:13;;;;;;;37.58;21.50;;;5.00;99.90;;;;;;5046849;28;20045;-75
2020/12/26 04:08:38;;;;;;;40.30;24.38;;;5.00;99.90;;;;;;5037534;28;20021;-74
2020/12/26 04:11:04;;;;;;;30.13;22.23;;;5.00;99.90;;;;;;5049203;28;20081;-75
2020/12/26 04:13:30;;;;;;;37.50;24.73;;;4.90;99.90;;;;;;5042731;28;20055;-75
2020/12/26 04:15:55;;;;;;;30.75;21.05;;;4.90;99.90;;;;;;5036992;28;20024;-75
2020/12/26 04:18:21;;;;;;;33.30;22.83;;;4.90;99.90;;;;;;5044346;28;20427;-73
2020/12/26 04:20:46;;;;;;;44.20;25.02;;;4.90;99.90;;;;;;5043233;28;20044;-75
2020/12/26 04:23:12;;;;;;;38.25;24.15;;;4.80;99.90;;;;;;5036269;28;20030;-74
2020/12/26 04:25:38;;;;;;;38.33;23.95;;;4.80;99.90;;;;;;5038596;28;20048;-74
2020/12/26 04:28:03;;;;;;;36.28;20.63;;;4.90;99.90;;;;;;5045155;28;20021;-75
2020/12/26 04:30:29;;;;;;;27.33;19.17;;;4.90;99.90;;;;;;5043717;28;20106;-75
2020/12/26 04:32:54;;;;;;;31.90;19.25;;;4.80;99.90;;;;;;5040334;28;20014;-73
2020/12/26 04:35:20;;;;;;;32.13;19.65;;;4.80;99.90;;;;;;5045442;28;20037;-75
2020/12/26 04:37:49;;;;;;;36.05;19.67;;;4.80;99.90;;;;;;5045963;28;20028;-75
2020/12/26 04:40:17;;;;;;;30.52;19.02;;;4.80;99.90;;;;;;5042663;28;20114;-75
2020/12/26 04:42:43;;;;;;;31.38;18.83;;;4.80;99.90;;;;;;5053065;28;20028;-75
2020/12/26 04:45:09;;;;;;;31.48;18.02;;;4.80;99.90;;;;;;5042744;28;20080;-75
2020/12/26 04:47:54;;;;;;;30.63;19.83;;;4.80;99.90;;;;;;5048641;28;20116;-75
2020/12/26 04:50:27;;;;;;;31.98;21.67;;;4.80;99.90;;;;;;5040643;28;20028;-75
2020/12/26 04:52:57;;;;;;;28.40;19.60;;;4.70;99.90;;;;;;5039413;28;20075;-75
2020/12/26 04:55:27;;;;;;;34.65;19.60;;;4.70;99.90;;;;;;5041981;28;20042;-75
2020/12/26 04:58:03;;;;;;;37.67;19.15;;;4.70;99.90;;;;;;5038004;28;20025;-74
2020/12/26 05:00:31;;;;;;;31.42;20.00;;;4.70;99.90;;;;;;5040221;28;20378;-75
2020/12/26 05:03:01;;;;;;;32.35;19.77;;;4.70;99.90;;;;;;5056020;28;20028;-74
2020/12/26 05:05:28;;;;;;;28.52;17.17;;;4.70;99.90;;;;;;5060047;28;20065;-75
2020/12/26 05:07:54;;;;;;;30.40;16.55;;;4.70;99.90;;;;;;5047100;28;20017;-73
2020/12/26 05:10:19;;;;;;;31.58;17.92;;;4.70;99.90;;;;;;5041084;28;20033;-75
2020/12/26 05:12:45;;;;;;;29.83;18.40;;;4.70;99.90;;;;;;5041349;28;20030;-73
2020/12/26 05:15:10;;;;;;;28.90;16.90;;;4.70;99.90;;;;;;5037674;28;20057;-73
2020/12/26 05:17:36;;;;;;;30.00;16.75;;;4.70;99.90;;;;;;5043552;28;20064;-75
2020/12/26 05:20:02;;;;;;;28.27;15.48;;;4.60;99.90;;;;;;5038757;28;20045;-75
2020/12/26 05:22:28;;;;;;;29.67;16.13;;;4.60;99.90;;;;;;5041976;28;20445;-75
2020/12/26 05:25:03;;;;;;;34.55;18.90;;;4.70;99.90;;;;;;5044296;28;20063;-75
2020/12/26 05:27:29;;;;;;;30.10;16.30;;;4.70;99.90;;;;;;5046572;28;20116;-75
2020/12/26 05:29:55;;;;;;;22.05;14.40;;;4.60;99.90;;;;;;5053370;28;20116;-75
2020/12/26 05:32:22;;;;;;;28.95;14.43;;;4.60;99.90;;;;;;5050331;28;20067;-75
2020/12/26 05:34:48;;;;;;;24.55;14.45;;;4.70;99.90;;;;;;5050062;28;20050;-74
2020/12/26 05:37:16;;;;;;;29.35;15.63;;;4.60;99.90;;;;;;5043599;28;20559;-75
2020/12/26 05:39:42;;;;;;;25.33;14.65;;;4.60;99.90;;;;;;5040902;28;20066;-75
2020/12/26 05:42:08;;;;;;;23.58;14.20;;;4.60;99.90;;;;;;5053623;28;20432;-75
2020/12/26 05:44:37;;;;;;;24.73;14.73;;;4.70;99.90;;;;;;5039739;28;20509;-75
2020/12/26 05:47:05;;;;;;;25.42;13.45;;;4.50;99.90;;;;;;5044766;28;20020;-75
2020/12/26 05:49:38;;;;;;;19.92;12.70;;;4.60;99.90;;;;;;5045566;28;20378;-75
2020/12/26 05:52:11;;;;;;;21.92;12.20;;;4.60;99.90;;;;;;5047837;28;20106;-75
2020/12/26 05:54:38;;;;;;;22.55;13.52;;;4.60;99.90;;;;;;5045196;28;20090;-75
2020/12/26 05:57:22;;;;;;;21.15;14.15;;;4.60;99.90;;;;;;5046574;28;20497;-75
2020/12/26 05:59:52;;;;;;;19.83;13.43;;;4.50;99.90;;;;;;5043321;28;20100;-75
2020/12/26 06:02:25;;;;;;;25.33;14.15;;;4.50;99.90;;;;;;5047086;28;20025;-74
2020/12/26 06:04:52;;;;;;;;;;;4.50;99.90;;;;;;5042133;28;20517;-75
2020/12/26 06:07:38;;;;;;;18.60;11.88;;;4.50;99.90;;;;;;5036623;28;19967;-74
2020/12/26 06:10:08;;;;;;;23.33;13.27;;;4.50;99.90;;;;;;5041098;28;20689;-74
2020/12/26 06:12:34;;;;;;;25.38;12.98;;;4.50;99.90;;;;;;5047524;28;20026;-75
2020/12/26 06:15:00;;;;;;;26.05;14.10;;;4.40;99.90;;;;;;5042598;28;20469;-74
2020/12/26 06:17:31;;;;;;;24.35;14.40;;;4.40;99.90;;;;;;5046743;28;20095;-75
2020/12/26 06:19:59;;;;;;;20.55;13.85;;;4.40;99.90;;;;;;5042092;28;20017;-73
2020/12/26 06:22:40;;;;;;;23.35;14.38;;;4.40;99.90;;;;;;5042184;28;20041;-72
2020/12/26 06:25:29;;;;;;;39.28;11.43;;;4.30;99.90;;;;;;5045560;28;20017;-72
2020/12/26 06:28:00;;;;;;;22.70;12.52;;;4.30;99.90;;;;;;5043798;28;20025;-72
2020/12/26 06:30:27;;;;;;;20.63;12.65;;;4.30;99.90;;;;;;5048537;28;20424;-71
2020/12/26 06:32:55;;;;;;;22.42;13.23;;;4.30;99.90;;;;;;5042104;28;20163;-72
2020/12/26 06:35:21;;;;;;;22.17;13.68;;;4.30;99.90;;;;;;5049077;28;20100;-72
2020/12/26 06:37:48;;;;;;;20.15;13.73;;;4.30;99.90;;;;;;5040866;28;20119;-72
2020/12/26 06:40:27;;;;;;;20.67;13.10;;;4.20;99.90;;;;;;5043148;28;20141;-72
2020/12/26 06:42:52;;;;;;;21.58;13.73;;;4.20;99.90;;;;;;5040872;28;20166;-73
2020/12/26 06:45:31;;;;;;;24.73;13.05;;;4.30;99.90;;;;;;5041916;28;20041;-72
2020/12/26 06:47:57;;;;;;;18.10;12.90;;;4.20;99.90;;;;;;5042803;28;20021;-72
2020/12/26 06:50:25;;;;;;;23.08;13.45;;;4.20;99.90;;;;;;5037977;28;20385;-72
2020/12/26 06:52:52;;;;;;;25.27;14.02;;;4.20;99.90;;;;;;5043717;28;20045;-72
2020/12/26 06:55:44;;;;;;;23.05;13.60;;;4.20;99.90;;;;;;5042268;28;20041;-75
2020/12/26 06:58:29;;;;;;;24.25;14.57;;;4.20;99.90;;;;;;5046334;28;20029;-72
2020/12/26 07:00:55;;;;;;;20.15;13.18;;;4.20;99.90;;;;;;5045791;28;20026;-72
2020/12/26 07:03:31;;;;;;;20.23;12.93;;;4.20;99.90;;;;;;5052138;28;20033;-72
2020/12/26 07:05:58;;;;;;;26.27;12.25;;;4.10;99.90;;;;;;5048436;28;20039;-73
2020/12/26 07:08:26;;;;;;;23.27;14.38;;;4.20;99.90;;;;;;5044934;28;20033;-71
2020/12/26 07:10:52;;;;;;;25.48;13.70;;;4.10;99.90;;;;;;5038753;28;20048;-72
2020/12/26 07:13:42;;;;;;;23.35;13.48;;;4.20;99.90;;;;;;5053037;28;20044;-72
2020/12/26 07:16:37;;;;;;;28.05;15.07;;;4.10;99.90;;;;;;5039170;28;20021;-72
2020/12/26 07:19:32;;;;;;;21.75;13.45;;;4.10;99.90;;;;;;5055900;28;20052;-72
2020/12/26 07:22:12;;;;;;;23.70;14.48;;;4.10;99.90;;;;;;5042400;28;20021;-72
2020/12/26 07:24:40;;;;;;;25.65;15.20;;;4.10;99.90;;;;;;5044605;28;20064;-72
2020/12/26 07:27:31;;;;;;;24.50;14.50;;;4.20;99.90;;;;;;5052485;28;20025;-73
2020/12/26 07:30:06;;;;;;;24.08;14.07;;;4.10;99.90;;;;;;5042326;28;20100;-72
2020/12/26 07:32:50;;;;;;;24.67;13.95;;;4.10;99.90;;;;;;5040772;28;20036;-72
2020/12/26 07:35:21;;;;;;;24.25;13.85;;;4.10;99.90;;;;;;5035443;28;20030;-73
2020/12/26 07:37:53;;;;;;;24.60;14.30;;;4.10;99.90;;;;;;5047170;28;20036;-72
2020/12/26 07:40:42;;;;;;;22.75;13.60;;;4.20;99.90;;;;;;5044120;28;20025;-72
2020/12/26 07:43:10;;;;;;;27.23;13.57;;;4.10;99.90;;;;;;5041546;28;20035;-71
2020/12/26 07:45:38;;;;;;;24.48;14.20;;;4.10;99.90;;;;;;5046129;28;20048;-72
2020/12/26 07:48:05;;;;;;;24.98;14.63;;;4.10;99.90;;;;;;5050037;28;20029;-72
2020/12/26 07:50:35;;;;;;;40.63;14.43;;;4.10;99.90;;;;;;5046801;28;20025;-72
2020/12/26 07:53:05;;;;;;;21.33;13.00;;;4.10;99.90;;;;;;5040150;28;20101;-72
2020/12/26 07:55:31;;;;;;;23.42;12.23;;;4.10;99.90;;;;;;5042938;28;20021;-72
2020/12/26 07:58:05;;;;;;;24.42;12.60;;;4.10;99.90;;;;;;5036934;28;20086;-73
2020/12/26 08:00:33;;;;;;;19.52;12.45;;;4.10;99.90;;;;;;5049619;28;20017;-72
2020/12/26 08:03:01;;;;;;;23.92;12.85;;;4.20;99.90;;;;;;5041749;28;20056;-72
2020/12/26 08:05:32;;;;;;;23.25;12.20;;;4.20;99.90;;;;;;5044217;28;20041;-73
2020/12/26 08:07:58;;;;;;;19.77;12.93;;;4.20;99.90;;;;;;5036810;28;20478;-72
2020/12/26 08:10:25;;;;;;;18.13;13.00;;;4.20;99.90;;;;;;5039892;28;20021;-73
2020/12/26 08:12:52;;;;;;;19.80;12.55;;;4.20;99.90;;;;;;5053794;28;20091;-72
2020/12/26 08:15:20;;;;;;;22.13;13.20;;;4.30;99.90;;;;;;5042616;28;20132;-72
2020/12/26 08:17:46;;;;;;;25.33;13.23;;;4.30;99.90;;;;;;5041191;28;20112;-72
2020/12/26 08:20:13;;;;;;;25.45;12.80;;;4.40;99.90;;;;;;5046044;28;20029;-73
2020/12/26 08:22:42;;;;;;;24.60;13.60;;;4.40;99.90;;;;;;5042534;28;20504;-72
2020/12/26 08:25:11;;;;;;;25.08;13.35;;;4.40;99.90;;;;;;5040928;28;20036;-72
2020/12/26 08:27:38;;;;;;;19.08;11.65;;;4.40;99.90;;;;;;5045897;28;20029;-72
2020/12/26 08:30:12;;;;;;;28.63;12.07;;;4.40;99.90;;;;;;5041802;28;20017;-72
2020/12/26 08:32:51;;;;;;;25.00;12.10;;;4.50;99.90;;;;;;5040827;28;20025;-72
2020/12/26 08:35:19;;;;;;;22.92;13.30;;;4.50;99.90;;;;;;5044719;28;20025;-72
2020/12/26 08:37:46;;;;;;;22.00;11.82;;;4.50;99.90;;;;;;5046313;28;20036;-73
2020/12/26 08:40:15;;;;;;;25.15;11.52;;;4.50;99.90;;;;;;5039068;28;20017;-73
2020/12/26 08:42:41;;;;;;;21.55;10.73;;;4.50;99.90;;;;;;5042367;28;20501;-72
2020/12/26 08:45:30;;;;;;;20.98;10.57;;;4.50;99.90;;;;;;5042659;28;20033;-72
2020/12/26 08:47:59;;;;;;;20.63;9.98;;;4.50;99.90;;;;;;5040393;28;20551;-72
2020/12/26 08:50:27;;;;;;;27.63;10.60;;;4.60;99.90;;;;;;5046569;28;20025;-72
2020/12/26 08:53:04;;;;;;;25.90;10.40;;;4.50;99.90;;;;;;5041940;28;20202;-72
2020/12/26 08:55:29;;;;;;;25.45;10.77;;;4.60;99.90;;;;;;5046556;28;20132;-72
2020/12/26 08:57:59;;;;;;;22.00;11.20;;;4.60;99.90;;;;;;5045869;28;20096;-72
2020/12/26 09:00:26;;;;;;;23.08;10.90;;;4.70;99.90;;;;;;5044094;28;20063;-72
2020/12/26 09:02:54;;;;;;;18.42;10.88;;;4.70;99.90;;;;;;5048275;28;20048;-72
2020/12/26 09:05:20;;;;;;;23.33;11.00;;;4.70;99.90;;;;;;5052664;28;20678;-72
2020/12/26 09:07:46;;;;;;;22.45;9.40;;;4.70;99.90;;;;;;5052375;28;20033;-72
2020/12/26 09:10:12;;;;;;;16.85;9.50;;;4.60;99.90;;;;;;5050259;28;20398;-72
2020/12/26 09:12:38;;;;;;;26.23;10.70;;;4.70;99.90;;;;;;5051857;28;20037;-72
2020/12/26 09:15:03;;;;;;;19.15;9.57;;;4.70;99.90;;;;;;5045968;28;20024;-75
2020/12/26 09:17:29;;;;;;;21.58;9.95;;;4.70;99.90;;;;;;5046515;28;20029;-72
2020/12/26 09:19:57;;;;;;;18.73;9.48;;;4.70;99.90;;;;;;5041381;28;20100;-74
2020/12/26 09:22:28;;;;;;;24.40;10.48;;;4.80;99.90;;;;;;5041752;28;20100;-75
2020/12/26 09:24:53;;;;;;;25.55;10.73;;;4.80;99.90;;;;;;5049554;28;20563;-73
2020/12/26 09:27:22;;;;;;;27.27;10.65;;;4.80;99.90;;;;;;5046174;28;20101;-72
2020/12/26 09:29:51;;;;;;;24.77;10.00;;;4.80;99.90;;;;;;5049901;28;20017;-72
2020/12/26 09:32:17;;;;;;;20.08;9.27;;;4.90;99.90;;;;;;5048099;28;20028;-72
2020/12/26 09:34:43;;;;;;;14.52;7.90;;;4.90;99.90;;;;;;5051108;28;20075;-72
2020/12/26 09:37:09;;;;;;;16.20;7.43;;;4.80;99.90;;;;;;5046962;28;20028;-75
2020/12/26 09:39:36;;;;;;;16.35;7.85;;;4.80;99.90;;;;;;5048082;28;20032;-73
2020/12/26 09:42:03;;;;;;;17.17;7.15;;;4.90;99.90;;;;;;5056135;28;20035;-72
2020/12/26 09:44:29;;;;;;;14.73;6.25;;;4.90;99.90;;;;;;5046429;28;20075;-72
2020/12/26 09:47:06;;;;;;;13.27;6.30;;;4.80;99.90;;;;;;5051213;28;20037;-73
2020/12/26 09:49:31;;;;;;;10.50;5.97;;;4.90;99.90;;;;;;5048351;28;20028;-72
2020/12/26 09:51:57;;;;;;;12.68;6.50;;;4.90;99.90;;;;;;5043310;28;20428;-74
2020/12/26 09:54:22;;;;;;;14.35;5.63;;;4.80;99.90;;;;;;5045702;28;20033;-72
2020/12/26 09:56:48;;;;;;;11.60;5.47;;;4.90;99.90;;;;;;5049521;28;20021;-72
2020/12/26 09:59:14;;;;;;;10.95;5.78;;;4.90;99.90;;;;;;5040246;28;20034;-73
2020/12/26 10:01:40;;;;;;;14.60;6.57;;;4.90;99.90;;;;;;5041797;28;20017;-73
2020/12/26 10:04:06;;;;;;;15.02;6.50;;;4.90;99.90;;;;;;5038446;28;20473;-73
2020/12/26 10:06:32;;;;;;;13.38;5.43;;;5.00;99.90;;;;;;5045735;28;20116;-73
2020/12/26 10:08:57;;;;;;;11.82;5.35;;;5.00;99.90;;;;;;5050597;28;20553;-73
2020/12/26 10:11:23;;;;;;;13.30;6.13;;;5.00;99.90;;;;;;5051454;28;20045;-72
2020/12/26 10:13:49;;;;;;;9.43;5.75;;;5.10;99.90;;;;;;5048437;28;20104;-73
2020/12/26 10:16:17;;;;;;;13.55;5.75;;;5.20;99.90;;;;;;5043223;28;20484;-73
2020/12/26 10:18:43;;;;;;;9.73;5.32;;;5.30;99.90;;;;;;5042281;28;20025;-72
2020/12/26 10:21:08;;;;;;;15.10;6.18;;;5.30;99.90;;;;;;5045870;28;20079;-72
2020/12/26 10:23:34;;;;;;;14.45;6.00;;;5.30;99.90;;;;;;5048573;28;20029;-72
2020/12/26 10:26:04;;;;;;;11.85;6.55;;;5.40;99.90;;;;;;5042720;28;20543;-72
2020/12/26 10:28:29;;;;;;;12.73;6.38;;;5.30;99.90;;;;;;5045415;28;20039;-73
2020/12/26 10:30:55;;;;;;;23.73;6.90;;;5.30;99.90;;;;;;5045517;28;20029;-72
2020/12/26 10:33:21;;;;;;;15.45;6.03;;;5.30;99.90;;;;;;5042425;28;20021;-72
2020/12/26 10:35:46;;;;;;;14.70;6.82;;;5.30;99.90;;;;;;5044014;28;20044;-72
2020/12/26 10:38:12;;;;;;;11.20;6.28;;;5.30;99.90;;;;;;5045696;28;20025;-73
2020/12/26 10:40:37;;;;;;;11.98;5.65;;;5.40;99.90;;;;;;5040600;28;20511;-72
2020/12/26 10:43:03;;;;;;;13.77;7.70;;;5.40;99.90;;;;;;5045170;28;20025;-73
2020/12/26 10:45:29;;;;;;;11.02;6.55;;;5.40;99.90;;;;;;5046823;28;20029;-72
2020/12/26 10:47:54;;;;;;;11.32;5.93;;;5.40;99.90;;;;;;5034675;28;20036;-73
2020/12/26 10:50:20;;;;;;;14.00;5.53;;;5.40;99.90;;;;;;5042759;28;20025;-72
2020/12/26 10:52:45;;;;;;;10.77;6.28;;;5.40;99.90;;;;;;5038618;28;20047;-72
2020/12/26 10:55:15;;;;;;;14.82;6.40;;;5.50;99.90;;;;;;5049242;28;20041;-76
2020/12/26 10:57:42;;;;;;;13.10;6.40;;;5.50;99.90;;;;;;5053636;28;20074;-74
2020/12/26 11:00:09;;;;;;;13.32;6.03;;;5.60;99.90;;;;;;5039304;28;20039;-72
2020/12/26 11:02:35;;;;;;;8.85;5.68;;;5.60;99.90;;;;;;5041486;28;20083;-74
2020/12/26 11:05:00;;;;;;;14.35;6.40;;;5.70;99.90;;;;;;5044779;28;20033;-76
2020/12/26 11:07:26;;;;;;;14.38;5.90;;;5.80;99.90;;;;;;5040758;28;20036;-76
2020/12/26 11:09:52;;;;;;;10.75;5.75;;;5.80;99.90;;;;;;5043662;28;20048;-73
2020/12/26 11:12:17;;;;;;;13.55;5.65;;;5.90;99.90;;;;;;5044192;28;20021;-76
2020/12/26 11:14:43;;;;;;;12.30;5.15;;;6.10;99.90;;;;;;5041226;28;20040;-76
2020/12/26 11:17:08;;;;;;;8.30;5.05;;;6.10;99.90;;;;;;5047265;28;20025;-76
2020/12/26 11:19:37;;;;;;;12.45;5.43;;;6.10;99.90;;;;;;5038363;28;20029;-77
2020/12/26 11:22:03;;;;;;;10.48;5.13;;;6.10;99.90;;;;;;5037824;28;20021;-75
2020/12/26 11:24:28;;;;;;;9.55;5.32;;;6.10;99.90;;;;;;5042519;28;20028;-76
2020/12/26 11:26:54;;;;;;;9.48;5.35;;;6.10;99.90;;;;;;5043145;28;20662;-74
2020/12/26 11:29:19;;;;;;;8.77;5.50;;;6.10;99.90;;;;;;5039966;28;20029;-74
2020/12/26 11:31:45;;;;;;;10.20;5.22;;;6.10;99.90;;;;;;5050712;28;20056;-76
2020/12/26 11:34:11;;;;;;;12.65;6.25;;;6.10;99.90;;;;;;5049835;28;20021;-76
2020/12/26 11:36:39;;;;;;;10.38;5.38;;;6.10;99.90;;;;;;5043118;28;20370;-73
2020/12/26 11:39:04;;;;;;;7.70;5.32;;;6.00;99.90;;;;;;5035814;28;20086;-77
2020/12/26 11:41:30;;;;;;;13.13;5.63;;;6.10;99.90;;;;;;5052043;28;20037;-75
2020/12/26 11:43:57;;;;;;;11.65;6.07;;;6.20;99.90;;;;;;5044951;28;20036;-76
2020/12/26 11:46:24;;;;;;;10.00;5.03;;;6.20;99.90;;;;;;5050023;28;20036;-76
2020/12/26 11:48:50;;;;;;;11.40;5.13;;;6.20;99.90;;;;;;5046400;28;20036;-75
2020/12/26 11:51:16;;;;;;;10.85;4.95;;;6.20;99.90;;;;;;5039520;28;20100;-76
2020/12/26 11:53:42;;;;;;;8.75;4.88;;;6.20;99.90;;;;;;5048350;28;20410;-76
2020/12/26 11:56:12;;;;;;;8.43;5.13;;;6.30;99.90;;;;;;5043999;28;20064;-75
2020/12/26 11:58:39;;;;;;;9.80;5.38;;;6.30;99.90;;;;;;5040867;28;20036;-76
2020/12/26 12:01:06;;;;;;;10.35;5.75;;;6.30;99.90;;;;;;5043252;28;20029;-75
2020/12/26 12:03:32;;;;;;;14.80;13.27;;;6.30;99.90;;;;;;5046682;28;20056;-75
2020/12/26 12:05:58;;;;;;;10.80;5.78;;;6.40;99.90;;;;;;5046927;28;20041;-76
2020/12/26 12:08:24;;;;;;;14.30;4.85;;;6.40;99.90;;;;;;5043557;28;20021;-74
2020/12/26 12:10:50;;;;;;;9.82;5.47;;;6.40;99.90;;;;;;5044910;28;20047;-76
2020/12/26 12:13:15;;;;;;;9.90;5.00;;;6.40;99.90;;;;;;5046108;28;20028;-75
2020/12/26 12:15:41;;;;;;;10.93;5.30;;;6.50;99.90;;;;;;5046529;28;20029;-74
2020/12/26 12:18:07;;;;;;;12.98;5.43;;;6.40;99.90;;;;;;5046610;28;20481;-76
2020/12/26 12:20:33;;;;;;;13.93;5.75;;;6.50;99.90;;;;;;5044507;28;20032;-75
2020/12/26 12:22:59;;;;;;;12.35;6.10;;;6.50;99.90;;;;;;5041651;28;20012;-76
2020/12/26 12:25:26;;;;;;;10.20;6.05;;;6.60;99.90;;;;;;5037228;28;20059;-75
2020/12/26 12:27:52;;;;;;;10.82;6.05;;;6.50;99.90;;;;;;5041212;28;20025;-77
2020/12/26 12:30:22;;;;;;;15.23;6.38;;;6.50;99.90;;;;;;5042746;28;20493;-73
2020/12/26 12:32:48;;;;;;;13.32;5.88;;;6.40;99.90;;;;;;5041815;28;20029;-75
2020/12/26 12:35:14;;;;;;;10.60;6.45;;;6.50;99.90;;;;;;5041696;28;20281;-76
2020/12/26 12:37:39;;;;;;;13.98;5.97;;;6.50;99.90;;;;;;5044348;28;20355;-78
2020/12/26 12:40:06;;;;;;;9.77;6.13;;;6.40;99.90;;;;;;5046602;28;20060;-76
2020/12/26 12:42:32;;;;;;;7.07;5.18;;;6.40;99.90;;;;;;5048287;28;20079;-74
2020/12/26 12:44:59;;;;;;;10.18;5.82;;;6.40;99.90;;;;;;5050698;28;20041;-73